Time;durP1;ratioP1;P1;durP2;ratioP2;P2;SDS_P1;SDS_P2;PMS_P1;PMS_P2;Temp;Humidity;BMP_temperature;BMP_pressure;BME280_temperature;BME280_humidity;BME280_pressure;Samples;Min_cycle;Max_cycle;Signal;HPM_P1;HPM_P2
2021/01/23 00:01:26;;;;;;;1.20;1.10;;;20.30;22.70;;;;;;5054893;28;20202;-54
2021/01/23 00:03:52;;;;;;;1.52;1.33;;;20.30;22.70;;;;;;5054823;28;20273;-54
2021/01/23 00:06:18;;;;;;;1.10;0.90;;;20.30;22.70;;;;;;5054866;28;20163;-53
2021/01/23 00:08:44;;;;;;;1.25;1.02;;;20.30;22.70;;;;;;5054337;28;20190;-54
2021/01/23 00:11:10;;;;;;;1.47;1.20;;;20.30;22.70;;;;;;5054752;28;20159;-54
2021/01/23 00:13:36;;;;;;;3.20;1.40;;;20.30;22.70;;;;;;5054730;28;20159;-54
2021/01/23 00:16:02;;;;;;;1.55;1.00;;;20.30;22.70;;;;;;5054527;28;20877;-54
2021/01/23 00:18:28;;;;;;;1.30;1.10;;;20.30;22.70;;;;;;5054592;28;20170;-53
2021/01/23 00:20:53;;;;;;;1.43;1.07;;;20.30;22.70;;;;;;5054591;28;20409;-53
2021/01/23 00:23:19;;;;;;;1.27;0.90;;;20.20;22.70;;;;;;5054044;28;20210;-54
2021/01/23 00:25:44;;;;;;;1.27;1.17;;;20.20;22.70;;;;;;5054604;28;20673;-54
2021/01/23 00:28:10;;;;;;;1.50;1.17;;;20.20;22.70;;;;;;5054481;28;20170;-53
2021/01/23 00:30:36;;;;;;;1.60;1.10;;;20.20;22.70;;;;;;5054520;28;20205;-54
2021/01/23 00:33:02;;;;;;;0.83;0.70;;;20.20;22.70;;;;;;5054355;28;20515;-54
2021/01/23 00:35:27;;;;;;;1.30;1.00;;;20.20;23.00;;;;;;5054482;28;20387;-54
2021/01/23 00:37:53;;;;;;;1.63;1.10;;;20.20;22.70;;;;;;5053991;28;20170;-54
2021/01/23 00:40:19;;;;;;;1.57;1.17;;;20.20;22.70;;;;;;5054374;28;20163;-54
2021/01/23 00:42:45;;;;;;;1.45;1.00;;;20.20;22.70;;;;;;5054152;28;20453;-55
2021/01/23 00:45:11;;;;;;;1.33;1.00;;;20.20;22.80;;;;;;5054144;28;20167;-54
2021/01/23 00:47:37;;;;;;;1.30;1.00;;;20.20;22.80;;;;;;5054146;28;20159;-54
2021/01/23 00:50:03;;;;;;;1.13;1.03;;;20.20;22.80;;;;;;5054215;28;20163;-54
2021/01/23 00:52:29;;;;;;;1.70;1.02;;;20.20;22.80;;;;;;5053841;28;20618;-54
2021/01/23 00:54:58;;;;;;;1.47;0.90;;;20.20;22.80;;;;;;5054225;28;20249;-54
2021/01/23 00:57:23;;;;;;;1.27;1.17;;;20.20;22.80;;;;;;5054056;28;20433;-54
2021/01/23 00:59:49;;;;;;;1.67;1.07;;;20.20;22.80;;;;;;5052770;28;20155;-54
2021/01/23 01:02:14;;;;;;;1.07;0.90;;;20.20;23.40;;;;;;5073947;28;20209;-55
2021/01/23 01:04:40;;;;;;;1.10;0.90;;;20.20;22.80;;;;;;5073962;28;20621;-54
2021/01/23 01:07:06;;;;;;;1.77;0.90;;;20.20;22.80;;;;;;5073740;28;20505;-54
2021/01/23 01:09:31;;;;;;;1.73;1.00;;;20.10;22.80;;;;;;5047564;28;20211;-54
2021/01/23 01:11:57;;;;;;;1.10;1.00;;;20.10;22.80;;;;;;5053821;28;20197;-54
2021/01/23 01:14:23;;;;;;;1.90;1.10;;;20.10;22.80;;;;;;5053624;28;20151;-54
2021/01/23 01:16:48;;;;;;;1.47;1.13;;;20.10;22.80;;;;;;5053643;28;20170;-54
2021/01/23 01:19:14;;;;;;;1.60;1.17;;;20.10;22.80;;;;;;5053962;28;20210;-54
2021/01/23 01:21:40;;;;;;;1.93;1.10;;;20.10;22.80;;;;;;5053621;28;20574;-54
2021/01/23 01:24:06;;;;;;;1.30;1.10;;;20.10;22.80;;;;;;5034817;28;20558;-54
2021/01/23 01:26:32;;;;;;;0.90;0.77;;;20.10;22.80;;;;;;5053596;28;20187;-54
2021/01/23 01:28:57;;;;;;;1.10;0.90;;;20.10;22.90;;;;;;5053260;28;20198;-54
2021/01/23 01:31:23;;;;;;;1.50;1.30;;;20.10;22.80;;;;;;5053471;28;20183;-54
2021/01/23 01:33:49;;;;;;;1.60;1.33;;;20.10;22.90;;;;;;5053363;28;20602;-54
2021/01/23 01:36:15;;;;;;;1.07;0.80;;;20.10;22.90;;;;;;5053362;28;20436;-54
2021/01/23 01:38:41;;;;;;;1.33;1.17;;;20.10;22.90;;;;;;5052919;28;20892;-54
2021/01/23 01:41:07;;;;;;;1.40;0.93;;;20.10;22.90;;;;;;5053264;28;20163;-54
2021/01/23 01:43:32;;;;;;;1.83;1.40;;;20.10;22.50;;;;;;5053267;28;20190;-55
2021/01/23 01:45:58;;;;;;;1.37;1.13;;;20.10;22.90;;;;;;5053370;28;20178;-55
2021/01/23 01:48:24;;;;;;;0.70;0.70;;;21.80;24.10;;;;;;5053518;28;20159;-55
2021/01/23 01:51:01;;;;;;;1.00;0.80;;;20.10;22.90;;;;;;5053559;28;20155;-53
2021/01/23 01:53:28;;;;;;;1.88;0.95;;;20.10;22.90;;;;;;5052966;28;20171;-53
2021/01/23 01:55:54;;;;;;;1.27;1.17;;;20.10;22.90;;;;;;5053338;28;20225;-54
2021/01/23 01:58:20;;;;;;;1.63;1.00;;;20.10;22.90;;;;;;5053163;28;20159;-55
2021/01/23 02:00:45;;;;;;;1.90;0.90;;;20.00;22.90;;;;;;5047703;28;20189;-54
2021/01/23 02:03:30;;;;;;;1.37;1.20;;;20.10;22.90;;;;;;5037270;28;20207;-54
2021/01/23 02:06:30;;;;;;;1.55;1.10;;;20.00;22.90;;;;;;5037163;28;20175;-56
2021/01/23 02:09:15;;;;;;;2.08;1.00;;;20.00;22.90;;;;;;5036670;28;20200;-54
2021/01/23 02:12:02;;;;;;;1.45;0.90;;;20.00;22.90;;;;;;5037167;28;20167;-55
2021/01/23 02:14:40;;;;;;;1.00;0.90;;;20.00;22.90;;;;;;5036982;28;20160;-55
2021/01/23 02:17:09;;;;;;;2.13;1.10;;;20.00;22.90;;;;;;5036984;28;20166;-54
2021/01/23 02:20:10;;;;;;;1.50;0.90;;;20.10;23.00;;;;;;5036863;28;20188;-57
2021/01/23 02:22:41;;;;;;;0.90;0.80;;;20.00;22.90;;;;;;5011917;28;20674;-54
2021/01/23 02:25:08;;;;;;;1.27;1.17;;;20.00;22.90;;;;;;5037053;28;20216;-54
2021/01/23 02:27:52;;;;;;;0.73;0.73;;;20.00;22.90;;;;;;5036784;28;20157;-54
2021/01/23 02:30:25;;;;;;;1.67;0.82;;;20.00;22.90;;;;;;5036963;28;20171;-54
2021/01/23 02:32:54;;;;;;;1.10;1.00;;;20.00;22.90;;;;;;5036864;28;20159;-54
2021/01/23 02:35:22;;;;;;;2.50;1.00;;;20.00;23.00;;;;;;5036773;28;20239;-54
2021/01/23 02:37:49;;;;;;;1.65;1.02;;;20.00;22.90;;;;;;5036325;28;20611;-54
2021/01/23 02:40:15;;;;;;;1.10;0.90;;;20.00;23.00;;;;;;5036573;28;20257;-54
2021/01/23 02:42:41;;;;;;;0.95;0.90;;;20.00;22.90;;;;;;5036583;28;20190;-55
2021/01/23 02:45:09;;;;;;;1.20;1.00;;;20.00;22.90;;;;;;5036852;28;20164;-54
2021/01/23 02:47:35;;;;;;;1.02;0.90;;;20.00;22.90;;;;;;5036449;28;20163;-54
2021/01/23 02:50:01;;;;;;;0.80;0.80;;;20.00;22.90;;;;;;5036514;28;20506;-54
2021/01/23 02:53:11;;;;;;;1.40;0.90;;;20.00;22.90;;;;;;5035942;28;20611;-54
2021/01/23 02:55:41;;;;;;;1.00;0.85;;;20.00;22.90;;;;;;4975428;28;20429;-54
2021/01/23 02:58:08;;;;;;;1.27;0.77;;;20.00;22.90;;;;;;5025424;28;20179;-54
2021/01/23 03:00:35;;;;;;;1.30;1.10;;;20.00;22.90;;;;;;5036374;28;20171;-54
2021/01/23 03:03:03;;;;;;;2.67;1.95;;;20.00;22.90;;;;;;5036014;28;20207;-54
2021/01/23 03:05:34;;;;;;;1.05;0.80;;;20.00;23.00;;;;;;5036385;28;20607;-54
2021/01/23 03:08:00;;;;;;;1.20;0.80;;;20.00;23.00;;;;;;5035667;28;20175;-54
2021/01/23 03:10:45;;;;;;;1.53;1.27;;;20.00;23.00;;;;;;5035287;28;20226;-54
2021/01/23 03:13:14;;;;;;;0.80;0.80;;;20.00;23.00;;;;;;5035949;28;20638;-54
2021/01/23 03:15:41;;;;;;;0.80;0.80;;;20.00;23.00;;;;;;5035989;28;20211;-54
2021/01/23 03:18:08;;;;;;;1.33;1.10;;;20.00;23.00;;;;;;5035918;28;20186;-55
2021/01/23 03:20:34;;;;;;;1.48;1.10;;;20.00;23.00;;;;;;5035887;28;20171;-54
2021/01/23 03:23:00;;;;;;;1.53;0.80;;;20.00;23.00;;;;;;5035298;28;20187;-55
2021/01/23 03:25:27;;;;;;;0.90;0.80;;;20.00;23.00;;;;;;5035750;28;20394;-54
2021/01/23 03:27:57;;;;;;;0.90;0.70;;;20.00;23.00;;;;;;5035603;28;20148;-55
2021/01/23 03:30:23;;;;;;;0.90;0.70;;;20.00;23.00;;;;;;5035901;28;20156;-55
2021/01/23 03:32:49;;;;;;;0.90;0.80;;;19.90;22.90;;;;;;5035687;28;20160;-54
2021/01/23 03:35:17;;;;;;;1.35;0.80;;;20.00;23.00;;;;;;5035744;28;20239;-54
2021/01/23 03:37:43;;;;;;;0.98;0.80;;;20.00;23.00;;;;;;5035147;28;20182;-54
2021/01/23 03:40:09;;;;;;;1.55;1.15;;;20.00;23.00;;;;;;5035552;28;20201;-53
2021/01/23 03:42:35;;;;;;;1.23;1.13;;;19.90;22.90;;;;;;5035410;28;20184;-54
2021/01/23 03:45:02;;;;;;;1.45;0.80;;;20.00;23.00;;;;;;5035505;28;20163;-55
2021/01/23 03:47:28;;;;;;;1.13;0.80;;;19.90;22.90;;;;;;5035342;28;20163;-54
2021/01/23 03:49:53;;;;;;;1.25;1.08;;;20.00;23.10;;;;;;5035434;28;20155;-54
2021/01/23 03:52:19;;;;;;;1.93;1.07;;;19.90;23.00;;;;;;5034887;28;20160;-54
2021/01/23 03:54:44;;;;;;;1.03;0.93;;;19.90;23.00;;;;;;5035207;28;20160;-54
2021/01/23 03:57:10;;;;;;;0.93;0.60;;;19.90;23.00;;;;;;5035202;28;20243;-54
2021/01/23 03:59:36;;;;;;;0.73;0.73;;;20.00;23.10;;;;;;5035358;28;20160;-54
2021/01/23 04:02:03;;;;;;;3.13;1.10;;;19.90;23.00;;;;;;5035028;28;20172;-54
2021/01/23 04:04:28;;;;;;;1.23;1.00;;;19.90;23.00;;;;;;5035020;28;20183;-54
2021/01/23 04:06:55;;;;;;;1.00;0.70;;;19.90;23.00;;;;;;5035022;28;20152;-54
2021/01/23 04:09:20;;;;;;;1.13;0.77;;;19.90;23.00;;;;;;5034469;28;20208;-54
2021/01/23 04:11:46;;;;;;;1.43;1.03;;;19.90;23.00;;;;;;5034969;28;20163;-54
2021/01/23 04:14:12;;;;;;;1.30;0.90;;;19.90;23.00;;;;;;5034905;28;20175;-54
2021/01/23 04:16:37;;;;;;;0.97;0.80;;;19.90;23.00;;;;;;5035023;28;20210;-54
2021/01/23 04:19:04;;;;;;;0.67;0.63;;;19.90;23.00;;;;;;5034790;28;20645;-54
2021/01/23 04:21:29;;;;;;;0.85;0.70;;;19.90;23.00;;;;;;5034829;28;20163;-54
2021/01/23 04:23:58;;;;;;;0.90;0.80;;;19.90;23.00;;;;;;5033833;28;20200;-54
2021/01/23 04:26:24;;;;;;;1.20;0.95;;;19.90;23.00;;;;;;5034756;28;20168;-54
2021/01/23 04:28:50;;;;;;;0.70;0.63;;;19.90;23.00;;;;;;5034695;28;20630;-54
2021/01/23 04:31:16;;;;;;;0.93;0.77;;;19.90;23.10;;;;;;5034590;28;20168;-53
2021/01/23 04:33:42;;;;;;;1.00;0.90;;;19.90;23.00;;;;;;5034684;28;20170;-54
2021/01/23 04:36:08;;;;;;;1.50;0.73;;;19.90;23.10;;;;;;5034289;28;20174;-54
2021/01/23 04:38:34;;;;;;;1.05;0.95;;;19.90;23.00;;;;;;5033909;28;20171;-54
2021/01/23 04:40:59;;;;;;;0.90;0.83;;;19.90;23.60;;;;;;5034233;28;20159;-54
2021/01/23 04:43:28;;;;;;;1.10;0.77;;;19.90;23.00;;;;;;5034432;28;20203;-54
2021/01/23 04:45:54;;;;;;;0.93;0.82;;;19.90;23.00;;;;;;5034240;28;20583;-55
2021/01/23 04:48:20;;;;;;;0.90;0.70;;;19.90;23.00;;;;;;5034305;28;20160;-54
2021/01/23 04:50:46;;;;;;;1.37;0.87;;;19.90;23.00;;;;;;5034362;28;20414;-54
2021/01/23 04:53:15;;;;;;;1.08;0.63;;;19.90;23.00;;;;;;5033578;28;20389;-54
2021/01/23 04:55:44;;;;;;;1.70;1.00;;;19.90;23.00;;;;;;5034230;28;20635;-54
2021/01/23 04:58:09;;;;;;;0.75;0.60;;;19.90;23.00;;;;;;5034063;28;20213;-54
2021/01/23 05:00:35;;;;;;;0.90;0.80;;;19.90;23.00;;;;;;5034050;28;20215;-54
2021/01/23 05:03:03;;;;;;;1.20;0.83;;;19.90;23.00;;;;;;5033716;28;20207;-54
2021/01/23 05:05:29;;;;;;;0.88;0.77;;;20.00;23.10;;;;;;5033954;28;20170;-54
2021/01/23 05:08:12;;;;;;;1.80;0.88;;;20.00;23.10;;;;;;5033459;28;20226;-54
2021/01/23 05:10:38;;;;;;;1.50;0.93;;;19.90;23.00;;;;;;5033870;28;20242;-53
2021/01/23 05:13:17;;;;;;;1.10;0.77;;;19.90;23.00;;;;;;5033715;28;20160;-54
2021/01/23 05:15:46;;;;;;;0.85;0.68;;;19.90;23.00;;;;;;5034036;28;20155;-54
2021/01/23 05:18:14;;;;;;;0.60;0.60;;;19.90;23.00;;;;;;5033604;28;20179;-54
2021/01/23 05:20:50;;;;;;;0.75;0.60;;;19.90;23.50;;;;;;5033793;28;20159;-54
2021/01/23 05:23:27;;;;;;;0.70;0.70;;;19.90;23.00;;;;;;5033597;28;20183;-54
2021/01/23 05:26:01;;;;;;;1.20;0.98;;;19.90;23.00;;;;;;5033713;28;20229;-54
2021/01/23 05:28:35;;;;;;;1.40;1.00;;;20.00;23.10;;;;;;5033694;28;20151;-54
2021/01/23 05:31:03;;;;;;;1.00;0.73;;;19.90;23.00;;;;;;5033630;28;20179;-53
2021/01/23 05:33:33;;;;;;;0.88;0.82;;;19.90;22.90;;;;;;5033240;28;20228;-54
2021/01/23 05:36:08;;;;;;;0.80;0.80;;;19.90;22.90;;;;;;5033060;28;20214;-54
2021/01/23 05:38:35;;;;;;;0.88;0.73;;;19.90;23.00;;;;;;5033186;28;20603;-54
2021/01/23 05:41:03;;;;;;;1.20;0.73;;;19.90;22.90;;;;;;5033442;28;20164;-54
2021/01/23 05:43:52;;;;;;;1.15;0.80;;;19.90;22.90;;;;;;5033221;28;20187;-53
2021/01/23 05:46:26;;;;;;;1.10;0.90;;;19.90;22.90;;;;;;5033422;28;20195;-54
2021/01/23 05:48:53;;;;;;;0.85;0.80;;;19.90;23.00;;;;;;5033458;28;20186;-54
2021/01/23 05:51:19;;;;;;;0.98;0.65;;;20.00;23.00;;;;;;5033487;28;20155;-55
2021/01/23 05:53:46;;;;;;;1.00;0.90;;;19.90;22.90;;;;;;5032860;28;20202;-54
2021/01/23 05:56:13;;;;;;;1.00;0.70;;;19.90;22.90;;;;;;5033351;28;20167;-53
2021/01/23 05:58:40;;;;;;;1.23;0.82;;;20.00;23.00;;;;;;5033345;28;20350;-54
2021/01/23 06:01:13;;;;;;;0.85;0.65;;;19.90;22.90;;;;;;5033236;28;20183;-54
2021/01/23 06:03:46;;;;;;;1.08;0.98;;;19.90;22.90;;;;;;5033113;28;20226;-54
2021/01/23 06:06:11;;;;;;;1.15;0.77;;;19.90;22.90;;;;;;5033398;28;20156;-54
2021/01/23 06:08:44;;;;;;;1.40;0.80;;;19.90;23.00;;;;;;5032909;28;20651;-54
2021/01/23 06:11:19;;;;;;;0.90;0.80;;;19.90;22.90;;;;;;5033216;28;20315;-53
2021/01/23 06:13:56;;;;;;;0.95;0.75;;;20.00;23.00;;;;;;5033241;28;20164;-54
2021/01/23 06:16:34;;;;;;;0.90;0.80;;;19.90;22.90;;;;;;5033430;28;20164;-54
2021/01/23 06:19:05;;;;;;;0.70;0.63;;;19.90;23.00;;;;;;5032944;28;20199;-54
2021/01/23 06:21:43;;;;;;;0.98;0.80;;;19.90;22.90;;;;;;5033209;28;20171;-54
2021/01/23 06:24:12;;;;;;;1.17;0.90;;;19.90;22.90;;;;;;5032552;28;20187;-54
2021/01/23 06:26:53;;;;;;;1.50;0.88;;;19.90;22.90;;;;;;5033239;28;20160;-54
2021/01/23 06:29:40;;;;;;;0.70;0.68;;;20.00;23.00;;;;;;5033066;28;20260;-55
2021/01/23 06:32:12;;;;;;;0.85;0.60;;;19.90;23.50;;;;;;5032837;28;20548;-54
2021/01/23 06:34:51;;;;;;;1.05;0.90;;;19.90;23.00;;;;;;5048407;28;20570;-54
2021/01/23 06:37:38;;;;;;;0.60;0.60;;;19.90;22.90;;;;;;5032472;28;20194;-54
2021/01/23 06:40:17;;;;;;;1.00;0.70;;;19.90;23.00;;;;;;5033300;28;20188;-54
2021/01/23 06:42:42;;;;;;;0.60;0.60;;;19.90;23.00;;;;;;5032845;28;20191;-54
2021/01/23 06:45:18;;;;;;;1.63;0.90;;;19.90;22.90;;;;;;5033380;28;20163;-54
2021/01/23 06:47:47;;;;;;;0.90;0.77;;;19.90;23.00;;;;;;5036188;28;20274;-54
2021/01/23 06:50:25;;;;;;;0.80;0.75;;;19.90;23.00;;;;;;5036549;28;20571;-54
2021/01/23 06:52:51;;;;;;;0.70;0.70;;;19.90;23.00;;;;;;5035986;28;20156;-54
2021/01/23 06:55:44;;;;;;;1.70;0.80;;;19.90;22.90;;;;;;5036485;28;20626;-54
2021/01/23 06:58:19;;;;;;;0.90;0.80;;;19.90;22.90;;;;;;5036218;28;20373;-54
2021/01/23 07:00:47;;;;;;;0.90;0.70;;;19.90;22.90;;;;;;5036359;28;20225;-55
2021/01/23 07:03:14;;;;;;;0.77;0.77;;;19.90;22.90;;;;;;5036012;28;20585;-54
2021/01/23 07:05:54;;;;;;;1.17;0.73;;;19.90;23.00;;;;;;5036303;28;20255;-54
2021/01/23 07:08:25;;;;;;;1.10;1.00;;;19.90;22.90;;;;;;5035715;28;20511;-55
2021/01/23 07:11:08;;;;;;;1.10;0.88;;;19.90;23.00;;;;;;5036007;28;20211;-54
2021/01/23 07:13:34;;;;;;;0.90;0.82;;;19.90;23.00;;;;;;5036024;28;20160;-55
2021/01/23 07:16:00;;;;;;;0.80;0.70;;;20.00;23.00;;;;;;5035771;28;20191;-54
2021/01/23 07:18:26;;;;;;;0.77;0.70;;;20.00;23.10;;;;;;5036002;28;20615;-54
2021/01/23 07:20:56;;;;;;;0.85;0.57;;;20.00;23.00;;;;;;5035918;28;20377;-54
2021/01/23 07:23:22;;;;;;;0.82;0.60;;;20.00;23.00;;;;;;5035298;28;20187;-53
2021/01/23 07:25:49;;;;;;;0.83;0.70;;;20.00;23.00;;;;;;5035790;28;20160;-54
2021/01/23 07:28:21;;;;;;;0.68;0.68;;;20.00;23.00;;;;;;5035683;28;20385;-53
2021/01/23 07:30:47;;;;;;;0.95;0.70;;;20.00;23.00;;;;;;5035650;28;20167;-53
2021/01/23 07:33:33;;;;;;;0.80;0.70;;;20.00;23.00;;;;;;5035673;28;20619;-54
2021/01/23 07:35:59;;;;;;;1.02;0.73;;;20.00;23.00;;;;;;5035082;28;20643;-54
2021/01/23 07:38:25;;;;;;;1.20;0.80;;;20.00;23.00;;;;;;5035235;28;20171;-53
2021/01/23 07:40:55;;;;;;;0.90;0.60;;;20.00;22.90;;;;;;5035599;28;20519;-54
2021/01/23 07:43:21;;;;;;;0.77;0.75;;;20.00;22.90;;;;;;5035463;28;20979;-54
2021/01/23 07:45:47;;;;;;;0.88;0.82;;;20.00;22.90;;;;;;5035243;28;20250;-54
2021/01/23 07:48:13;;;;;;;1.30;0.90;;;20.00;22.90;;;;;;5035400;28;20572;-54
2021/01/23 07:50:41;;;;;;;1.10;0.70;;;20.00;22.40;;;;;;5035463;28;20168;-54
2021/01/23 07:53:32;;;;;;;0.75;0.75;;;20.00;22.90;;;;;;5034653;28;20156;-54
2021/01/23 07:55:58;;;;;;;1.10;0.73;;;20.10;22.90;;;;;;5032448;28;20196;-54
2021/01/23 07:58:25;;;;;;;1.03;0.60;;;20.10;22.90;;;;;;5034469;28;20206;-54
2021/01/23 08:00:50;;;;;;;1.00;0.90;;;20.10;22.90;;;;;;5034868;28;20546;-55
2021/01/23 08:03:16;;;;;;;0.87;0.60;;;20.10;22.90;;;;;;5035007;28;20195;-54
2021/01/23 08:05:42;;;;;;;0.70;0.70;;;20.10;22.80;;;;;;5035223;28;20222;-54
2021/01/23 08:08:08;;;;;;;0.98;0.82;;;20.10;22.80;;;;;;5034453;28;20164;-54
2021/01/23 08:10:38;;;;;;;1.27;0.90;;;20.10;22.80;;;;;;5034939;28;20709;-54
2021/01/23 08:13:06;;;;;;;1.95;0.88;;;20.10;22.80;;;;;;5034686;28;20405;-54
2021/01/23 08:15:33;;;;;;;1.17;1.00;;;20.20;22.80;;;;;;5034969;28;20164;-54
2021/01/23 08:18:00;;;;;;;0.80;0.60;;;20.20;22.80;;;;;;5034622;28;20160;-54
2021/01/23 08:20:38;;;;;;;0.70;0.60;;;20.20;22.80;;;;;;5034793;28;20179;-54
2021/01/23 08:23:06;;;;;;;1.10;0.70;;;20.20;22.70;;;;;;5034277;28;20198;-54
2021/01/23 08:25:34;;;;;;;0.70;0.60;;;20.20;22.70;;;;;;5034623;28;20148;-54
2021/01/23 08:27:59;;;;;;;0.93;0.63;;;20.20;22.70;;;;;;5034381;28;20607;-55
2021/01/23 08:30:26;;;;;;;0.60;0.50;;;20.20;22.70;;;;;;5034616;28;20167;-53
2021/01/23 08:32:53;;;;;;;0.70;0.70;;;20.20;22.70;;;;;;5034355;28;20793;-54
2021/01/23 08:35:20;;;;;;;4.75;0.90;;;20.30;22.70;;;;;;5034647;28;20523;-54
2021/01/23 08:37:46;;;;;;;0.70;0.50;;;20.30;22.70;;;;;;5033966;28;20160;-53
2021/01/23 08:40:16;;;;;;;0.90;0.70;;;20.30;22.60;;;;;;5034446;28;20611;-54
2021/01/23 08:42:41;;;;;;;0.93;0.65;;;20.30;22.60;;;;;;5033944;28;20154;-54
2021/01/23 08:45:08;;;;;;;0.53;0.53;;;20.30;22.50;;;;;;5034327;28;20212;-54
2021/01/23 08:47:33;;;;;;;1.10;0.90;;;20.30;22.50;;;;;;5034021;28;20726;-53
2021/01/23 08:49:59;;;;;;;0.87;0.70;;;20.30;22.50;;;;;;5034142;28;20247;-54
2021/01/23 08:52:25;;;;;;;0.80;0.70;;;20.40;22.50;;;;;;5048881;28;20179;-54
2021/01/23 08:54:50;;;;;;;0.90;0.60;;;20.40;22.50;;;;;;5034174;28;20550;-55
2021/01/23 08:57:16;;;;;;;0.83;0.80;;;20.40;22.40;;;;;;5034040;28;20195;-54
2021/01/23 08:59:41;;;;;;;0.80;0.80;;;20.40;22.40;;;;;;5034106;28;20622;-54
2021/01/23 09:02:10;;;;;;;1.23;0.97;;;20.50;22.40;;;;;;5033828;28;20595;-53
2021/01/23 09:04:36;;;;;;;0.60;0.60;;;20.50;22.40;;;;;;5016944;28;20195;-54
2021/01/23 09:07:02;;;;;;;0.77;0.63;;;20.50;22.30;;;;;;5033802;28;20152;-54
2021/01/23 09:09:27;;;;;;;1.20;1.00;;;20.50;22.30;;;;;;5019590;28;20431;-54
2021/01/23 09:11:53;;;;;;;0.90;0.90;;;20.50;22.30;;;;;;5053581;28;20167;-55
2021/01/23 09:14:19;;;;;;;1.17;0.80;;;20.50;22.30;;;;;;5053575;28;20507;-55
2021/01/23 09:16:45;;;;;;;0.73;0.60;;;20.60;22.30;;;;;;5053675;28;20835;-54
2021/01/23 09:19:10;;;;;;;1.27;0.90;;;20.60;22.20;;;;;;5053469;28;20658;-54
2021/01/23 09:21:36;;;;;;;0.97;0.73;;;20.60;22.20;;;;;;5053795;28;20165;-54
2021/01/23 09:24:02;;;;;;;0.80;0.60;;;20.60;22.20;;;;;;5053030;28;20561;-53
2021/01/23 09:26:30;;;;;;;1.30;0.80;;;20.60;22.10;;;;;;5053181;28;20162;-53
2021/01/23 09:28:59;;;;;;;1.20;0.80;;;20.70;22.10;;;;;;5053380;28;20158;-53
2021/01/23 09:31:24;;;;;;;0.93;0.85;;;20.70;22.10;;;;;;5053767;28;20163;-53
2021/01/23 09:33:50;;;;;;;0.80;0.67;;;20.70;22.00;;;;;;5053496;28;20162;-55
2021/01/23 09:36:17;;;;;;;3.00;1.07;;;20.70;21.90;;;;;;5053474;28;20159;-54
2021/01/23 09:38:42;;;;;;;1.00;0.70;;;20.70;21.90;;;;;;5052836;28;20191;-54
2021/01/23 09:41:10;;;;;;;0.80;0.77;;;20.80;21.90;;;;;;5053048;28;20566;-54
2021/01/23 09:43:36;;;;;;;2.25;1.00;;;20.80;21.80;;;;;;5051898;28;20199;-54
2021/01/23 09:46:01;;;;;;;0.90;0.80;;;20.80;21.80;;;;;;5053183;28;20625;-54
2021/01/23 09:48:27;;;;;;;0.90;0.80;;;20.80;21.80;;;;;;5053201;28;20204;-53
2021/01/23 09:50:53;;;;;;;1.10;1.00;;;20.90;21.80;;;;;;5053323;28;20166;-54
2021/01/23 09:53:19;;;;;;;1.30;0.90;;;20.80;21.60;;;;;;5052690;28;20406;-54
2021/01/23 09:55:45;;;;;;;0.70;0.60;;;20.90;21.70;;;;;;5053006;28;20152;-54
2021/01/23 09:58:10;;;;;;;1.20;0.90;;;20.90;22.20;;;;;;5053124;28;20163;-54
2021/01/23 10:00:36;;;;;;;1.80;0.77;;;21.00;21.60;;;;;;5053063;28;20195;-53
2021/01/23 10:03:03;;;;;;;0.90;0.73;;;21.00;21.60;;;;;;5052754;28;20182;-54
2021/01/23 10:05:29;;;;;;;1.08;0.70;;;21.00;21.40;;;;;;5053320;28;20160;-54
2021/01/23 10:07:54;;;;;;;0.70;0.70;;;21.10;21.40;;;;;;5052588;28;20159;-54
2021/01/23 10:10:20;;;;;;;1.77;0.93;;;21.10;21.40;;;;;;5052719;28;20215;-54
2021/01/23 10:12:46;;;;;;;0.80;0.77;;;21.10;21.30;;;;;;5052986;28;20579;-54
2021/01/23 10:15:12;;;;;;;1.00;0.80;;;21.10;21.20;;;;;;5052961;28;20173;-53
2021/01/23 10:17:37;;;;;;;0.70;0.70;;;21.20;21.10;;;;;;5052925;28;20186;-54
2021/01/23 10:20:04;;;;;;;3.03;0.80;;;21.20;21.10;;;;;;5053369;28;20156;-54
2021/01/23 10:22:30;;;;;;;2.85;1.00;;;21.20;21.10;;;;;;5056452;28;20170;-54
2021/01/23 10:24:59;;;;;;;0.80;0.67;;;21.20;21.10;;;;;;5056892;28;20229;-54
2021/01/23 10:27:24;;;;;;;0.90;0.70;;;21.30;21.10;;;;;;5056600;28;20391;-55
2021/01/23 10:29:53;;;;;;;1.67;1.00;;;21.30;21.10;;;;;;5056539;28;20163;-54
2021/01/23 10:32:19;;;;;;;0.80;0.70;;;21.30;21.10;;;;;;5056640;28;20606;-54
2021/01/23 10:34:45;;;;;;;1.33;1.13;;;21.30;21.10;;;;;;5056936;28;20189;-54
2021/01/23 10:37:10;;;;;;;2.13;0.90;;;21.30;21.10;;;;;;5056166;28;20160;-54
2021/01/23 10:39:36;;;;;;;0.93;0.73;;;21.30;21.10;;;;;;5055383;28;20162;-55
2021/01/23 10:42:03;;;;;;;0.87;0.80;;;21.30;21.10;;;;;;5056458;28;20406;-53
2021/01/23 10:44:37;;;;;;;1.27;0.80;;;21.40;21.20;;;;;;5056318;28;20191;-53
2021/01/23 10:47:03;;;;;;;0.80;0.70;;;21.40;21.20;;;;;;5056238;28;20159;-54
2021/01/23 10:49:29;;;;;;;1.40;1.00;;;21.40;21.20;;;;;;5055978;28;20159;-54
2021/01/23 10:51:54;;;;;;;1.87;0.97;;;21.40;21.20;;;;;;5056185;28;20162;-54
2021/01/23 10:54:20;;;;;;;0.80;0.80;;;21.40;21.20;;;;;;5055487;28;20165;-55
2021/01/23 10:56:46;;;;;;;1.23;0.77;;;21.40;21.20;;;;;;5056149;28;20168;-54
2021/01/23 10:59:11;;;;;;;0.77;0.57;;;21.40;21.20;;;;;;5056414;28;20164;-54
2021/01/23 11:01:37;;;;;;;1.30;0.70;;;21.40;21.20;;;;;;5056116;28;20685;-54
2021/01/23 11:04:03;;;;;;;0.93;0.83;;;21.50;21.20;;;;;;5055805;28;20214;-54
2021/01/23 11:06:28;;;;;;;1.10;0.80;;;21.50;21.20;;;;;;5056018;28;20610;-55
2021/01/23 11:08:54;;;;;;;1.60;0.87;;;21.50;21.10;;;;;;5055541;28;20151;-53
2021/01/23 11:11:20;;;;;;;1.02;0.88;;;21.50;21.00;;;;;;5055640;28;20231;-55
2021/01/23 11:13:46;;;;;;;2.40;1.10;;;21.50;21.00;;;;;;5055854;28;20510;-54
2021/01/23 11:16:11;;;;;;;2.30;0.97;;;21.60;21.00;;;;;;5055833;28;20484;-54
2021/01/23 11:18:37;;;;;;;1.13;0.87;;;21.50;20.90;;;;;;5055602;28;20665;-55
2021/01/23 11:21:06;;;;;;;0.90;0.80;;;21.60;20.90;;;;;;5055749;28;20630;-54
2021/01/23 11:23:31;;;;;;;0.90;0.60;;;21.60;20.80;;;;;;5055041;28;20194;-54
2021/01/23 11:25:57;;;;;;;1.27;0.73;;;21.60;21.40;;;;;;5055796;28;20167;-54
2021/01/23 11:28:23;;;;;;;1.33;0.77;;;21.60;20.80;;;;;;5055624;28;20226;-54
2021/01/23 11:30:53;;;;;;;1.50;0.63;;;21.60;20.80;;;;;;5055478;28;20170;-55
2021/01/23 11:33:19;;;;;;;1.63;0.90;;;21.60;20.80;;;;;;5046324;28;20162;-54
2021/01/23 11:35:44;;;;;;;1.67;1.10;;;21.60;20.70;;;;;;5055552;28;20163;-55
2021/01/23 11:38:11;;;;;;;0.83;0.60;;;21.60;20.70;;;;;;5055005;28;20165;-54
2021/01/23 11:40:36;;;;;;;2.05;1.10;;;21.60;20.70;;;;;;5055843;28;20204;-54
2021/01/23 11:43:02;;;;;;;0.70;0.70;;;21.60;20.70;;;;;;5037290;28;20206;-54
2021/01/23 11:45:30;;;;;;;0.93;0.70;;;21.60;20.70;;;;;;5055360;28;20155;-54
2021/01/23 11:47:59;;;;;;;0.80;0.65;;;21.60;20.70;;;;;;5055168;28;20158;-54
2021/01/23 11:50:25;;;;;;;1.25;0.93;;;21.60;21.30;;;;;;5037580;28;20155;-53
2021/01/23 11:52:50;;;;;;;0.80;0.60;;;21.60;20.80;;;;;;5054529;28;20155;-54
2021/01/23 11:55:16;;;;;;;1.40;1.07;;;21.60;20.80;;;;;;5055390;28;20175;-54
2021/01/23 11:57:41;;;;;;;0.77;0.77;;;21.60;20.80;;;;;;5054999;28;20487;-53
2021/01/23 12:00:08;;;;;;;1.30;1.07;;;21.60;20.80;;;;;;5054982;28;20664;-54
2021/01/23 12:02:34;;;;;;;1.33;1.05;;;21.60;20.80;;;;;;5055013;28;20289;-54
2021/01/23 12:04:59;;;;;;;0.80;0.70;;;21.70;20.80;;;;;;5054953;28;20621;-54
2021/01/23 12:07:25;;;;;;;1.10;0.70;;;21.70;20.80;;;;;;5054397;28;20167;-54
2021/01/23 12:09:51;;;;;;;0.80;0.70;;;21.70;20.80;;;;;;5053527;28;20214;-54
2021/01/23 12:12:16;;;;;;;1.13;0.80;;;21.70;20.70;;;;;;5055086;28;20250;-54
2021/01/23 12:14:42;;;;;;;0.70;0.57;;;21.70;20.70;;;;;;5054863;28;20217;-54
2021/01/23 12:17:08;;;;;;;1.00;0.73;;;21.70;20.70;;;;;;5054565;28;20515;-54
2021/01/23 12:19:34;;;;;;;1.37;1.23;;;21.70;20.70;;;;;;5054468;28;20611;-54
2021/01/23 12:22:00;;;;;;;0.97;0.87;;;21.70;20.70;;;;;;5054512;28;20384;-55
2021/01/23 12:24:25;;;;;;;1.50;0.70;;;21.80;20.70;;;;;;5053929;28;20428;-54
2021/01/23 12:26:51;;;;;;;1.60;1.07;;;21.80;20.70;;;;;;5054470;28;20404;-54
2021/01/23 12:29:16;;;;;;;1.53;0.90;;;21.80;20.60;;;;;;5054538;28;20209;-55
2021/01/23 12:31:42;;;;;;;2.30;1.07;;;21.80;20.60;;;;;;5054529;28;20159;-53
2021/01/23 12:34:08;;;;;;;1.47;0.83;;;21.80;20.60;;;;;;5054295;28;20177;-54
2021/01/23 12:36:33;;;;;;;0.87;0.80;;;21.80;20.50;;;;;;5054248;28;20191;-54
2021/01/23 12:39:03;;;;;;;1.27;1.03;;;21.80;20.50;;;;;;5053934;28;20162;-54
2021/01/23 12:41:29;;;;;;;0.98;0.70;;;21.80;20.50;;;;;;5054167;28;20160;-55
2021/01/23 12:43:55;;;;;;;1.20;1.10;;;21.80;20.50;;;;;;5053778;28;20191;-54
2021/01/23 12:46:20;;;;;;;1.23;0.87;;;21.80;20.50;;;;;;5054004;28;20166;-54
2021/01/23 12:48:49;;;;;;;1.00;0.90;;;21.80;20.50;;;;;;5054069;28;20496;-54
2021/01/23 12:51:17;;;;;;;1.05;0.80;;;21.80;20.50;;;;;;5053835;28;20234;-54
2021/01/23 12:53:42;;;;;;;1.63;0.80;;;21.80;20.50;;;;;;5053636;28;20160;-54